sensor_id;sensor_type;location;lat;lon;timestamp;pressure;altitude;pressure_sealevel;temperature;humidity
18533;BME280;9396;51.510;11.934;2022-08-01T00:01:31;100254.16;;;20.82;100.00
18533;BME280;9396;51.510;11.934;2022-08-01T00:03:58;100264.75;;;20.83;100.00
18533;BME280;9396;51.510;11.934;2022-08-01T00:06:27;100269.69;;;20.86;100.00
18533;BME280;9396;51.510;11.934;2022-08-01T00:08:54;100266.19;;;20.86;100.00
18533;BME280;9396;51.510;11.934;2022-08-01T00:11:20;100280.50;;;20.86;100.00
18533;BME280;9396;51.510;11.934;2022-08-01T00:13:47;100275.94;;;20.87;100.00
18533;BME280;9396;51.510;11.934;2022-08-01T00:16:14;100281.81;;;20.84;100.00
18533;BME280;9396;51.510;11.934;2022-08-01T00:18:41;100276.03;;;20.80;100.00
18533;BME280;9396;51.510;11.934;2022-08-01T00:21:07;100266.03;;;20.56;100.00
18533;BME280;9396;51.510;11.934;2022-08-01T00:23:35;100269.13;;;20.60;100.00
18533;BME280;9396;51.510;11.934;2022-08-01T00:26:02;100271.84;;;20.60;100.00
18533;BME280;9396;51.510;11.934;2022-08-01T00:28:29;100262.94;;;20.53;100.00
18533;BME280;9396;51.510;11.934;2022-08-01T00:30:55;100257.13;;;20.56;100.00
18533;BME280;9396;51.510;11.934;2022-08-01T00:33:22;100260.81;;;20.61;100.00
18533;BME280;9396;51.510;11.934;2022-08-01T00:35:49;100255.41;;;20.61;100.00
18533;BME280;9396;51.510;11.934;2022-08-01T00:38:15;100247.88;;;20.63;100.00
18533;BME280;9396;51.510;11.934;2022-08-01T00:40:44;100256.59;;;20.65;100.00
18533;BME280;9396;51.510;11.934;2022-08-01T00:43:10;100247.06;;;20.63;100.00
18533;BME280;9396;51.510;11.934;2022-08-01T00:45:37;100243.31;;;20.64;100.00
18533;BME280;9396;51.510;11.934;2022-08-01T00:48:04;100249.09;;;20.67;100.00
18533;BME280;9396;51.510;11.934;2022-08-01T00:50:31;100184.00;;;20.26;100.00
18533;BME280;9396;51.510;11.934;2022-08-01T00:52:58;100251.50;;;20.57;100.00
18533;BME280;9396;51.510;11.934;2022-08-01T00:55:26;100250.66;;;20.57;100.00
18533;BME280;9396;51.510;11.934;2022-08-01T00:57:54;100246.69;;;20.59;100.00
18533;BME280;9396;51.510;11.934;2022-08-01T01:00:21;100246.47;;;20.61;100.00
18533;BME280;9396;51.510;11.934;2022-08-01T01:02:48;100244.16;;;20.64;100.00
18533;BME280;9396;51.510;11.934;2022-08-01T01:05:15;100242.28;;;20.65;100.00
18533;BME280;9396;51.510;11.934;2022-08-01T01:07:46;100173.47;;;20.18;100.00
18533;BME280;9396;51.510;11.934;2022-08-01T01:10:17;100244.59;;;20.61;100.00
18533;BME280;9396;51.510;11.934;2022-08-01T01:12:51;100242.28;;;20.40;100.00
18533;BME280;9396;51.510;11.934;2022-08-01T01:15:24;100230.47;;;20.35;100.00
18533;BME280;9396;51.510;11.934;2022-08-01T01:17:57;100240.56;;;20.21;100.00
18533;BME280;9396;51.510;11.934;2022-08-01T01:20:28;100239.09;;;20.25;100.00
18533;BME280;9396;51.510;11.934;2022-08-01T01:23:11;100229.94;;;20.26;100.00
18533;BME280;9396;51.510;11.934;2022-08-01T01:25:51;100230.75;;;20.27;100.00
18533;BME280;9396;51.510;11.934;2022-08-01T01:28:26;100235.56;;;20.24;100.00
18533;BME280;9396;51.510;11.934;2022-08-01T01:30:57;100241.19;;;20.23;100.00
18533;BME280;9396;51.510;11.934;2022-08-01T01:33:26;100236.84;;;20.22;100.00
18533;BME280;9396;51.510;11.934;2022-08-01T01:35:59;100243.53;;;20.13;100.00
18533;BME280;9396;51.510;11.934;2022-08-01T01:38:29;100245.78;;;20.16;100.00
18533;BME280;9396;51.510;11.934;2022-08-01T01:40:59;100249.34;;;20.10;100.00
18533;BME280;9396;51.510;11.934;2022-08-01T01:43:28;100241.03;;;20.18;100.00
18533;BME280;9396;51.510;11.934;2022-08-01T01:45:57;100252.81;;;20.23;100.00
18533;BME280;9396;51.510;11.934;2022-08-01T01:48:24;100240.34;;;20.22;100.00
18533;BME280;9396;51.510;11.934;2022-08-01T01:50:52;100236.16;;;20.27;100.00
18533;BME280;9396;51.510;11.934;2022-08-01T01:53:20;100235.31;;;20.26;100.00
18533;BME280;9396;51.510;11.934;2022-08-01T01:55:51;100236.56;;;20.30;100.00
18533;BME280;9396;51.510;11.934;2022-08-01T01:58:19;100234.31;;;20.27;100.00
18533;BME280;9396;51.510;11.934;2022-08-01T02:00:48;100235.50;;;20.31;100.00
18533;BME280;9396;51.510;11.934;2022-08-01T02:03:18;100240.47;;;20.34;100.00
18533;BME280;9396;51.510;11.934;2022-08-01T02:05:46;100235.69;;;20.36;100.00
18533;BME280;9396;51.510;11.934;2022-08-01T02:08:15;100229.81;;;20.39;100.00
18533;BME280;9396;51.510;11.934;2022-08-01T02:10:44;100236.88;;;20.40;100.00
18533;BME280;9396;51.510;11.934;2022-08-01T02:13:34;100227.97;;;20.40;100.00
18533;BME280;9396;51.510;11.934;2022-08-01T02:16:03;100230.28;;;20.36;100.00
18533;BME280;9396;51.510;11.934;2022-08-01T02:18:31;100233.38;;;20.40;100.00
18533;BME280;9396;51.510;11.934;2022-08-01T02:20:59;100229.88;;;20.33;100.00
18533;BME280;9396;51.510;11.934;2022-08-01T02:23:28;100231.53;;;20.34;100.00
18533;BME280;9396;51.510;11.934;2022-08-01T02:26:00;100232.63;;;20.26;100.00
18533;BME280;9396;51.510;11.934;2022-08-01T02:28:32;100229.31;;;20.24;100.00
18533;BME280;9396;51.510;11.934;2022-08-01T02:31:03;100234.13;;;20.15;100.00
18533;BME280;9396;51.510;11.934;2022-08-01T02:33:36;100236.22;;;20.13;100.00
18533;BME280;9396;51.510;11.934;2022-08-01T02:36:05;100229.53;;;20.22;100.00
18533;BME280;9396;51.510;11.934;2022-08-01T02:38:35;100236.38;;;20.25;100.00
18533;BME280;9396;51.510;11.934;2022-08-01T02:41:07;100228.75;;;20.22;100.00
18533;BME280;9396;51.510;11.934;2022-08-01T02:43:37;100243.00;;;20.29;100.00
18533;BME280;9396;51.510;11.934;2022-08-01T02:46:08;100247.44;;;20.17;100.00
18533;BME280;9396;51.510;11.934;2022-08-01T02:48:41;100251.81;;;20.18;100.00
18533;BME280;9396;51.510;11.934;2022-08-01T02:51:09;100247.41;;;20.23;100.00
18533;BME280;9396;51.510;11.934;2022-08-01T02:53:38;100239.47;;;20.29;100.00
18533;BME280;9396;51.510;11.934;2022-08-01T02:56:07;100244.50;;;20.25;100.00
18533;BME280;9396;51.510;11.934;2022-08-01T02:58:36;100240.97;;;20.24;100.00
18533;BME280;9396;51.510;11.934;2022-08-01T03:01:04;100249.50;;;20.15;100.00
18533;BME280;9396;51.510;11.934;2022-08-01T03:03:31;100246.00;;;20.14;100.00
18533;BME280;9396;51.510;11.934;2022-08-01T03:06:01;100254.91;;;20.21;100.00
18533;BME280;9396;51.510;11.934;2022-08-01T03:08:28;100252.84;;;20.17;100.00
18533;BME280;9396;51.510;11.934;2022-08-01T03:10:56;100248.28;;;20.17;100.00
18533;BME280;9396;51.510;11.934;2022-08-01T03:13:25;100258.22;;;20.23;100.00
18533;BME280;9396;51.510;11.934;2022-08-01T03:15:54;100254.47;;;20.24;100.00
18533;BME280;9396;51.510;11.934;2022-08-01T03:18:24;100261.16;;;20.15;100.00
18533;BME280;9396;51.510;11.934;2022-08-01T03:20:54;100260.31;;;20.15;100.00
18533;BME280;9396;51.510;11.934;2022-08-01T03:23:24;100260.75;;;20.12;100.00
18533;BME280;9396;51.510;11.934;2022-08-01T03:25:51;100264.50;;;20.17;100.00
18533;BME280;9396;51.510;11.934;2022-08-01T03:28:20;100268.25;;;20.16;100.00
18533;BME280;9396;51.510;11.934;2022-08-01T03:30:49;100268.88;;;20.18;100.00
18533;BME280;9396;51.510;11.934;2022-08-01T03:33:16;100275.91;;;20.19;100.00
18533;BME280;9396;51.510;11.934;2022-08-01T03:35:47;100273.00;;;20.21;100.00
18533;BME280;9396;51.510;11.934;2022-08-01T03:38:18;100270.63;;;20.31;100.00
18533;BME280;9396;51.510;11.934;2022-08-01T03:40:49;100269.75;;;20.37;100.00
18533;BME280;9396;51.510;11.934;2022-08-01T03:43:22;100271.81;;;20.42;100.00
18533;BME280;9396;51.510;11.934;2022-08-01T03:45:52;100269.13;;;20.35;100.00
18533;BME280;9396;51.510;11.934;2022-08-01T03:48:22;100281.56;;;20.43;100.00
18533;BME280;9396;51.510;11.934;2022-08-01T03:50:52;100270.97;;;20.41;100.00
18533;BME280;9396;51.510;11.934;2022-08-01T03:53:22;100291.09;;;20.45;100.00
18533;BME280;9396;51.510;11.934;2022-08-01T03:55:52;100279.94;;;20.35;100.00
18533;BME280;9396;51.510;11.934;2022-08-01T03:58:21;100277.25;;;20.35;100.00
18533;BME280;9396;51.510;11.934;2022-08-01T04:00:48;100239.53;;;20.22;100.00
18533;BME280;9396;51.510;11.934;2022-08-01T04:03:15;100271.75;;;20.48;100.00
18533;BME280;9396;51.510;11.934;2022-08-01T04:05:42;100277.31;;;20.53;100.00
18533;BME280;9396;51.510;11.934;2022-08-01T04:08:10;100281.22;;;20.57;100.00
18533;BME280;9396;51.510;11.934;2022-08-01T04:10:37;100275.81;;;20.57;100.00
18533;BME280;9396;51.510;11.934;2022-08-01T04:13:05;100284.53;;;20.59;100.00
18533;BME280;9396;51.510;11.934;2022-08-01T04:15:31;100279.75;;;20.61;100.00
18533;BME280;9396;51.510;11.934;2022-08-01T04:17:58;100280.31;;;20.63;100.00
18533;BME280;9396;51.510;11.934;2022-08-01T04:20:25;100283.84;;;20.64;100.00
18533;BME280;9396;51.510;11.934;2022-08-01T04:22:51;100281.53;;;20.67;100.00
18533;BME280;9396;51.510;11.934;2022-08-01T04:25:23;100276.59;;;20.64;100.00
18533;BME280;9396;51.510;11.934;2022-08-01T04:27:53;100281.38;;;20.62;100.00
18533;BME280;9396;51.510;11.934;2022-08-01T04:30:24;100278.22;;;20.65;100.00
18533;BME280;9396;51.510;11.934;2022-08-01T04:32:54;100281.53;;;20.67;100.00
18533;BME280;9396;51.510;11.934;2022-08-01T04:35:21;100283.59;;;20.72;100.00
18533;BME280;9396;51.510;11.934;2022-08-01T04:37:51;100290.25;;;20.69;100.00
18533;BME280;9396;51.510;11.934;2022-08-01T04:40:19;100288.16;;;20.71;100.00
18533;BME280;9396;51.510;11.934;2022-08-01T04:42:47;100291.09;;;20.70;100.00
18533;BME280;9396;51.510;11.934;2022-08-01T04:45:15;100300.69;;;20.66;100.00
18533;BME280;9396;51.510;11.934;2022-08-01T04:47:44;100300.41;;;20.49;100.00
18533;BME280;9396;51.510;11.934;2022-08-01T04:50:13;100300.53;;;20.36;100.00
18533;BME280;9396;51.510;11.934;2022-08-01T04:52:39;100302.63;;;20.34;100.00
18533;BME280;9396;51.510;11.934;2022-08-01T04:55:08;100294.69;;;20.39;100.00
18533;BME280;9396;51.510;11.934;2022-08-01T04:57:38;100300.03;;;20.46;100.00
18533;BME280;9396;51.510;11.934;2022-08-01T05:00:06;100302.94;;;20.44;100.00
18533;BME280;9396;51.510;11.934;2022-08-01T05:02:33;100301.63;;;20.53;100.00
18533;BME280;9396;51.510;11.934;2022-08-01T05:05:02;100304.09;;;20.55;100.00
18533;BME280;9396;51.510;11.934;2022-08-01T05:07:31;100304.66;;;20.63;100.00
18533;BME280;9396;51.510;11.934;2022-08-01T05:09:58;100302.84;;;20.57;100.00
18533;BME280;9396;51.510;11.934;2022-08-01T05:12:26;100305.25;;;20.65;100.00
18533;BME280;9396;51.510;11.934;2022-08-01T05:14:53;100298.59;;;20.68;100.00
18533;BME280;9396;51.510;11.934;2022-08-01T05:17:20;100297.38;;;20.64;100.00
18533;BME280;9396;51.510;11.934;2022-08-01T05:19:46;100299.44;;;20.68;100.00
18533;BME280;9396;51.510;11.934;2022-08-01T05:22:14;100299.59;;;20.73;100.00
18533;BME280;9396;51.510;11.934;2022-08-01T05:24:42;100303.16;;;20.67;100.00
18533;BME280;9396;51.510;11.934;2022-08-01T05:27:09;100304.78;;;20.75;100.00
18533;BME280;9396;51.510;11.934;2022-08-01T05:29:35;100303.47;;;20.77;100.00
18533;BME280;9396;51.510;11.934;2022-08-01T05:32:02;100313.13;;;20.73;100.00
18533;BME280;9396;51.510;11.934;2022-08-01T05:34:29;100313.03;;;20.80;100.00
18533;BME280;9396;51.510;11.934;2022-08-01T05:36:56;100302.59;;;20.83;100.00
18533;BME280;9396;51.510;11.934;2022-08-01T05:39:24;100301.22;;;20.74;100.00
18533;BME280;9396;51.510;11.934;2022-08-01T05:41:50;100306.78;;;20.79;100.00
18533;BME280;9396;51.510;11.934;2022-08-01T05:44:17;100309.16;;;20.94;100.00
18533;BME280;9396;51.510;11.934;2022-08-01T05:46:44;100306.22;;;20.95;100.00
18533;BME280;9396;51.510;11.934;2022-08-01T05:49:11;100304.91;;;21.04;100.00
18533;BME280;9396;51.510;11.934;2022-08-01T05:51:38;100303.91;;;21.23;100.00
18533;BME280;9396;51.510;11.934;2022-08-01T05:54:04;100311.25;;;21.35;100.00
18533;BME280;9396;51.510;11.934;2022-08-01T05:56:32;100303.50;;;21.56;100.00
18533;BME280;9396;51.510;11.934;2022-08-01T05:58:59;100305.44;;;21.67;100.00
18533;BME280;9396;51.510;11.934;2022-08-01T06:01:26;100296.63;;;21.72;100.00
18533;BME280;9396;51.510;11.934;2022-08-01T06:03:52;100298.28;;;21.73;100.00
18533;BME280;9396;51.510;11.934;2022-08-01T06:06:20;100311.22;;;21.71;100.00
18533;BME280;9396;51.510;11.934;2022-08-01T06:08:46;100307.44;;;21.72;100.00
18533;BME280;9396;51.510;11.934;2022-08-01T06:11:13;100313.81;;;21.66;100.00
18533;BME280;9396;51.510;11.934;2022-08-01T06:13:41;100318.97;;;21.67;100.00
18533;BME280;9396;51.510;11.934;2022-08-01T06:16:08;100326.28;;;21.85;100.00
18533;BME280;9396;51.510;11.934;2022-08-01T06:18:35;100318.56;;;22.41;100.00
18533;BME280;9396;51.510;11.934;2022-08-01T06:21:01;100317.94;;;22.69;98.48
18533;BME280;9396;51.510;11.934;2022-08-01T06:23:28;100326.31;;;22.67;97.43
18533;BME280;9396;51.510;11.934;2022-08-01T06:25:55;100324.88;;;22.53;98.03
18533;BME280;9396;51.510;11.934;2022-08-01T06:28:23;100322.59;;;22.50;97.62
18533;BME280;9396;51.510;11.934;2022-08-01T06:30:51;100325.63;;;22.30;98.48
18533;BME280;9396;51.510;11.934;2022-08-01T06:33:18;100334.41;;;22.14;99.34
18533;BME280;9396;51.510;11.934;2022-08-01T06:35:46;100339.53;;;21.93;100.00
18533;BME280;9396;51.510;11.934;2022-08-01T06:38:12;100342.84;;;21.77;100.00
18533;BME280;9396;51.510;11.934;2022-08-01T06:40:39;100340.41;;;21.69;100.00
18533;BME280;9396;51.510;11.934;2022-08-01T06:43:06;100354.09;;;21.56;100.00
18533;BME280;9396;51.510;11.934;2022-08-01T06:45:33;100323.34;;;21.14;100.00
18533;BME280;9396;51.510;11.934;2022-08-01T06:48:03;100371.03;;;21.33;100.00
18533;BME280;9396;51.510;11.934;2022-08-01T06:50:30;100355.28;;;21.05;100.00
18533;BME280;9396;51.510;11.934;2022-08-01T06:52:57;100364.00;;;21.07;100.00
18533;BME280;9396;51.510;11.934;2022-08-01T06:55:24;100364.59;;;21.09;100.00
18533;BME280;9396;51.510;11.934;2022-08-01T06:57:52;100365.31;;;20.98;100.00
18533;BME280;9396;51.510;11.934;2022-08-01T07:00:20;100373.91;;;20.89;100.00
18533;BME280;9396;51.510;11.934;2022-08-01T07:02:48;100374.16;;;20.87;100.00
18533;BME280;9396;51.510;11.934;2022-08-01T07:05:16;100372.28;;;20.88;100.00
18533;BME280;9396;51.510;11.934;2022-08-01T07:07:43;100372.81;;;20.96;100.00
18533;BME280;9396;51.510;11.934;2022-08-01T07:10:10;100373.63;;;21.03;100.00
18533;BME280;9396;51.510;11.934;2022-08-01T07:12:37;100363.19;;;21.07;100.00
18533;BME280;9396;51.510;11.934;2022-08-01T07:15:07;100369.72;;;21.17;100.00
18533;BME280;9396;51.510;11.934;2022-08-01T07:17:36;100367.66;;;21.38;100.00
18533;BME280;9396;51.510;11.934;2022-08-01T07:20:04;100373.81;;;21.45;100.00
18533;BME280;9396;51.510;11.934;2022-08-01T07:22:32;100369.59;;;21.67;100.00
18533;BME280;9396;51.510;11.934;2022-08-01T07:24:59;100366.28;;;22.01;100.00
18533;BME280;9396;51.510;11.934;2022-08-01T07:27:25;100366.56;;;22.11;100.00
18533;BME280;9396;51.510;11.934;2022-08-01T07:29:52;100368.00;;;22.13;99.49
18533;BME280;9396;51.510;11.934;2022-08-01T07:32:19;100360.72;;;22.25;96.46
18533;BME280;9396;51.510;11.934;2022-08-01T07:34:46;100362.78;;;22.42;98.27
18533;BME280;9396;51.510;11.934;2022-08-01T07:37:12;100360.13;;;22.23;97.50
18533;BME280;9396;51.510;11.934;2022-08-01T07:39:40;100374.34;;;22.37;98.05
18533;BME280;9396;51.510;11.934;2022-08-01T07:42:07;100367.00;;;22.38;96.03
18533;BME280;9396;51.510;11.934;2022-08-01T07:44:34;100366.19;;;22.67;97.63
18533;BME280;9396;51.510;11.934;2022-08-01T07:47:01;100367.66;;;23.15;95.31
18533;BME280;9396;51.510;11.934;2022-08-01T07:49:27;100369.16;;;23.58;94.05
18533;BME280;9396;51.510;11.934;2022-08-01T07:51:54;100367.44;;;24.03;90.08
18533;BME280;9396;51.510;11.934;2022-08-01T07:54:21;100363.88;;;24.02;89.23
18533;BME280;9396;51.510;11.934;2022-08-01T07:56:50;100364.91;;;24.13;89.83
18533;BME280;9396;51.510;11.934;2022-08-01T07:59:17;100369.41;;;24.07;88.12
18533;BME280;9396;51.510;11.934;2022-08-01T08:01:48;100368.97;;;23.87;88.23
18533;BME280;9396;51.510;11.934;2022-08-01T08:04:14;100374.00;;;23.67;90.75
18533;BME280;9396;51.510;11.934;2022-08-01T08:06:41;100373.00;;;23.33;91.47
18533;BME280;9396;51.510;11.934;2022-08-01T08:09:08;100388.50;;;22.92;91.13
18533;BME280;9396;51.510;11.934;2022-08-01T08:11:35;100389.91;;;22.71;93.39
18533;BME280;9396;51.510;11.934;2022-08-01T08:14:03;100384.94;;;22.68;92.08
18533;BME280;9396;51.510;11.934;2022-08-01T08:16:29;100388.00;;;22.60;94.50
18533;BME280;9396;51.510;11.934;2022-08-01T08:18:56;100397.72;;;22.50;95.06
18533;BME280;9396;51.510;11.934;2022-08-01T08:21:23;100391.47;;;22.49;95.33
18533;BME280;9396;51.510;11.934;2022-08-01T08:23:49;100393.69;;;22.52;95.41
18533;BME280;9396;51.510;11.934;2022-08-01T08:26:33;100398.25;;;22.58;93.83
18533;BME280;9396;51.510;11.934;2022-08-01T08:29:00;100399.53;;;22.56;95.48
18533;BME280;9396;51.510;11.934;2022-08-01T08:31:28;100407.91;;;22.36;95.91
18533;BME280;9396;51.510;11.934;2022-08-01T08:33:55;100407.53;;;22.32;97.22
18533;BME280;9396;51.510;11.934;2022-08-01T08:36:22;100406.50;;;22.33;97.26
18533;BME280;9396;51.510;11.934;2022-08-01T08:38:48;100406.09;;;22.48;95.86
18533;BME280;9396;51.510;11.934;2022-08-01T08:41:15;100401.69;;;22.65;95.20
18533;BME280;9396;51.510;11.934;2022-08-01T08:43:42;100405.34;;;22.82;94.53
18533;BME280;9396;51.510;11.934;2022-08-01T08:46:09;100400.69;;;23.01;92.71
18533;BME280;9396;51.510;11.934;2022-08-01T08:48:40;100401.97;;;23.21;91.37
18533;BME280;9396;51.510;11.934;2022-08-01T08:51:07;100397.88;;;23.30;90.51
18533;BME280;9396;51.510;11.934;2022-08-01T08:53:37;100403.28;;;23.54;89.37
18533;BME280;9396;51.510;11.934;2022-08-01T08:56:06;100404.81;;;23.73;88.44
18533;BME280;9396;51.510;11.934;2022-08-01T08:58:35;100415.81;;;23.66;88.16
18533;BME280;9396;51.510;11.934;2022-08-01T09:01:05;100409.19;;;23.62;88.44
18533;BME280;9396;51.510;11.934;2022-08-01T09:03:32;100411.44;;;23.54;89.96
18533;BME280;9396;51.510;11.934;2022-08-01T09:06:00;100414.66;;;23.51;90.23
18533;BME280;9396;51.510;11.934;2022-08-01T09:08:27;100419.72;;;23.35;88.61
18533;BME280;9396;51.510;11.934;2022-08-01T09:10:54;100418.28;;;23.45;88.83
18533;BME280;9396;51.510;11.934;2022-08-01T09:13:21;100421.97;;;23.50;88.91
18533;BME280;9396;51.510;11.934;2022-08-01T09:15:50;100414.88;;;23.49;87.98
18533;BME280;9396;51.510;11.934;2022-08-01T09:18:30;100417.22;;;23.57;87.41
18533;BME280;9396;51.510;11.934;2022-08-01T09:21:13;100422.31;;;23.54;86.25
18533;BME280;9396;51.510;11.934;2022-08-01T09:23:42;100421.72;;;23.63;87.15
18533;BME280;9396;51.510;11.934;2022-08-01T09:26:10;100422.75;;;23.74;85.55
18533;BME280;9396;51.510;11.934;2022-08-01T09:28:37;100420.53;;;23.71;85.11
18533;BME280;9396;51.510;11.934;2022-08-01T09:31:09;100429.03;;;23.74;85.01
18533;BME280;9396;51.510;11.934;2022-08-01T09:33:53;100425.84;;;23.54;83.28
18533;BME280;9396;51.510;11.934;2022-08-01T09:36:23;100420.53;;;23.59;84.92
18533;BME280;9396;51.510;11.934;2022-08-01T09:38:52;100422.75;;;23.74;84.84
18533;BME280;9396;51.510;11.934;2022-08-01T09:41:29;100428.06;;;23.92;84.12
18533;BME280;9396;51.510;11.934;2022-08-01T09:43:56;100372.31;;;23.78;81.46
18533;BME280;9396;51.510;11.934;2022-08-01T09:46:24;100418.41;;;24.24;84.20
18533;BME280;9396;51.510;11.934;2022-08-01T09:48:58;100403.69;;;24.36;81.08
18533;BME280;9396;51.510;11.934;2022-08-01T09:51:32;100434.38;;;24.49;82.18
18533;BME280;9396;51.510;11.934;2022-08-01T09:54:00;100433.19;;;24.56;81.62
18533;BME280;9396;51.510;11.934;2022-08-01T09:56:36;100422.75;;;24.53;81.16
18533;BME280;9396;51.510;11.934;2022-08-01T09:59:02;100402.28;;;24.34;82.11
18533;BME280;9396;51.510;11.934;2022-08-01T10:01:42;100425.72;;;24.35;81.08
18533;BME280;9396;51.510;11.934;2022-08-01T10:04:10;100423.16;;;24.17;81.81
18533;BME280;9396;51.510;11.934;2022-08-01T10:06:39;100434.50;;;24.14;81.56
18533;BME280;9396;51.510;11.934;2022-08-01T10:09:08;100372.97;;;23.57;81.99
18533;BME280;9396;51.510;11.934;2022-08-01T10:11:36;100439.63;;;23.99;82.70
18533;BME280;9396;51.510;11.934;2022-08-01T10:14:04;100432.06;;;23.89;82.87
18533;BME280;9396;51.510;11.934;2022-08-01T10:16:33;100431.47;;;23.99;84.06
18533;BME280;9396;51.510;11.934;2022-08-01T10:19:00;100420.22;;;24.07;83.60
18533;BME280;9396;51.510;11.934;2022-08-01T10:21:28;100423.28;;;24.10;81.78
18533;BME280;9396;51.510;11.934;2022-08-01T10:24:00;100430.69;;;24.26;82.93
18533;BME280;9396;51.510;11.934;2022-08-01T10:26:29;100432.72;;;24.48;83.57
18533;BME280;9396;51.510;11.934;2022-08-01T10:28:58;100433.25;;;24.61;80.95
18533;BME280;9396;51.510;11.934;2022-08-01T10:31:25;100423.16;;;24.73;80.28
18533;BME280;9396;51.510;11.934;2022-08-01T10:33:57;100421.19;;;24.85;80.69
18533;BME280;9396;51.510;11.934;2022-08-01T10:36:24;100444.47;;;24.93;79.72
18533;BME280;9396;51.510;11.934;2022-08-01T10:38:51;100406.31;;;24.60;79.07
18533;BME280;9396;51.510;11.934;2022-08-01T10:41:19;100437.28;;;24.87;80.39
18533;BME280;9396;51.510;11.934;2022-08-01T10:43:46;100436.47;;;24.86;80.92
18533;BME280;9396;51.510;11.934;2022-08-01T10:46:13;100443.22;;;24.84;79.74
18533;BME280;9396;51.510;11.934;2022-08-01T10:48:45;100439.63;;;24.67;79.73
18533;BME280;9396;51.510;11.934;2022-08-01T10:51:14;100449.78;;;24.71;80.30
18533;BME280;9396;51.510;11.934;2022-08-01T10:53:46;100437.34;;;24.75;79.68
18533;BME280;9396;51.510;11.934;2022-08-01T10:56:14;100430.84;;;24.76;78.61
18533;BME280;9396;51.510;11.934;2022-08-01T10:58:44;100434.63;;;24.75;77.86
18533;BME280;9396;51.510;11.934;2022-08-01T11:01:18;100444.44;;;24.76;79.56
18533;BME280;9396;51.510;11.934;2022-08-01T11:03:57;100443.41;;;24.66;81.12
18533;BME280;9396;51.510;11.934;2022-08-01T11:06:25;100443.97;;;24.51;81.94
18533;BME280;9396;51.510;11.934;2022-08-01T11:08:54;100447.84;;;24.55;82.08
18533;BME280;9396;51.510;11.934;2022-08-01T11:11:22;100456.19;;;24.37;82.18
18533;BME280;9396;51.510;11.934;2022-08-01T11:14:03;100451.03;;;24.24;82.88
18533;BME280;9396;51.510;11.934;2022-08-01T11:16:34;100444.53;;;24.25;82.34
18533;BME280;9396;51.510;11.934;2022-08-01T11:19:02;100457.69;;;24.16;83.00
18533;BME280;9396;51.510;11.934;2022-08-01T11:21:59;100449.28;;;24.18;83.76
18533;BME280;9396;51.510;11.934;2022-08-01T11:24:55;100449.72;;;24.26;81.74
18533;BME280;9396;51.510;11.934;2022-08-01T11:27:26;100449.69;;;24.38;82.29
18533;BME280;9396;51.510;11.934;2022-08-01T11:30:23;100449.75;;;24.55;81.78
18533;BME280;9396;51.510;11.934;2022-08-01T11:32:52;100448.75;;;24.61;79.73
18533;BME280;9396;51.510;11.934;2022-08-01T11:35:20;100452.16;;;24.68;81.72
18533;BME280;9396;51.510;11.934;2022-08-01T11:37:49;100444.41;;;24.60;79.46
18533;BME280;9396;51.510;11.934;2022-08-01T11:40:19;100458.03;;;24.48;78.91
18533;BME280;9396;51.510;11.934;2022-08-01T11:42:46;100461.16;;;24.40;80.92
18533;BME280;9396;51.510;11.934;2022-08-01T11:45:14;100465.28;;;24.42;81.06
18533;BME280;9396;51.510;11.934;2022-08-01T11:47:46;100459.03;;;24.42;80.98
18533;BME280;9396;51.510;11.934;2022-08-01T11:50:32;100466.59;;;24.40;81.28
18533;BME280;9396;51.510;11.934;2022-08-01T11:53:00;100462.56;;;24.42;81.32
18533;BME280;9396;51.510;11.934;2022-08-01T11:55:28;100401.53;;;24.10;81.00
18533;BME280;9396;51.510;11.934;2022-08-01T11:58:02;100458.69;;;24.38;81.03
18533;BME280;9396;51.510;11.934;2022-08-01T12:00:29;100448.94;;;24.42;81.70
18533;BME280;9396;51.510;11.934;2022-08-01T12:02:59;100447.16;;;24.48;82.78
18533;BME280;9396;51.510;11.934;2022-08-01T12:05:27;100449.84;;;24.60;82.10
18533;BME280;9396;51.510;11.934;2022-08-01T12:07:55;100440.34;;;24.62;80.47
18533;BME280;9396;51.510;11.934;2022-08-01T12:10:23;100441.72;;;24.76;82.15
18533;BME280;9396;51.510;11.934;2022-08-01T12:12:51;100434.91;;;24.90;81.55
18533;BME280;9396;51.510;11.934;2022-08-01T12:15:20;100441.03;;;24.97;80.27
18533;BME280;9396;51.510;11.934;2022-08-01T12:17:49;100440.16;;;24.80;79.41
18533;BME280;9396;51.510;11.934;2022-08-01T12:20:21;100443.56;;;24.71;79.18
18533;BME280;9396;51.510;11.934;2022-08-01T12:22:52;100449.59;;;24.61;78.18
18533;BME280;9396;51.510;11.934;2022-08-01T12:25:19;100442.88;;;24.52;78.94
18533;BME280;9396;51.510;11.934;2022-08-01T12:27:46;100442.88;;;24.52;80.40
18533;BME280;9396;51.510;11.934;2022-08-01T12:30:14;100453.84;;;24.57;80.92
18533;BME280;9396;51.510;11.934;2022-08-01T12:32:42;100451.13;;;24.57;80.22
18533;BME280;9396;51.510;11.934;2022-08-01T12:35:11;100460.72;;;24.60;79.99
18533;BME280;9396;51.510;11.934;2022-08-01T12:37:41;100449.94;;;24.65;81.68
18533;BME280;9396;51.510;11.934;2022-08-01T12:40:11;100449.69;;;24.66;80.99
18533;BME280;9396;51.510;11.934;2022-08-01T12:42:40;100470.94;;;24.69;80.98
18533;BME280;9396;51.510;11.934;2022-08-01T12:45:08;100428.34;;;24.47;79.35
18533;BME280;9396;51.510;11.934;2022-08-01T12:47:36;100461.69;;;24.54;78.88
18533;BME280;9396;51.510;11.934;2022-08-01T12:50:05;100463.00;;;24.51;79.21
18533;BME280;9396;51.510;11.934;2022-08-01T12:52:32;100452.47;;;24.55;77.98
18533;BME280;9396;51.510;11.934;2022-08-01T12:57:38;100462.34;;;24.61;79.97